createdAt,value
2022-07-28T00:01:25.495Z,11.71
2022-07-28T00:03:54.171Z,11.70
2022-07-28T00:06:22.693Z,11.68
2022-07-28T00:08:51.263Z,11.66
2022-07-28T00:11:19.757Z,11.65
2022-07-28T00:13:48.305Z,11.62
2022-07-28T00:16:17.056Z,11.59
2022-07-28T00:18:45.706Z,11.55
2022-07-28T00:21:14.302Z,11.52
2022-07-28T00:23:42.920Z,11.49
2022-07-28T00:26:12.669Z,11.46
2022-07-28T00:28:41.225Z,11.43
2022-07-28T00:31:09.808Z,11.41
2022-07-28T00:33:40.280Z,11.39
2022-07-28T00:36:11.746Z,11.39
2022-07-28T00:38:44.289Z,11.39
2022-07-28T00:41:14.523Z,11.39
2022-07-28T00:43:46.740Z,11.38
2022-07-28T00:46:18.553Z,11.37
2022-07-28T00:48:53.624Z,11.36
2022-07-28T00:51:25.393Z,11.36
2022-07-28T00:53:55.112Z,11.35
2022-07-28T00:56:24.359Z,11.34
2022-07-28T00:58:53.331Z,11.34
2022-07-28T01:01:22.852Z,11.35
2022-07-28T01:03:59.856Z,11.36
2022-07-28T01:06:53.731Z,11.37
2022-07-28T01:09:52.945Z,11.39
2022-07-28T01:12:51.395Z,11.28
2022-07-28T01:15:37.953Z,11.13
2022-07-28T01:18:21.511Z,11.00
2022-07-28T01:20:59.402Z,10.91
2022-07-28T01:23:32.313Z,10.84
2022-07-28T01:26:39.780Z,10.75
2022-07-28T01:29:37.237Z,10.69
2022-07-28T01:32:19.201Z,10.64
2022-07-28T01:35:06.028Z,10.61
2022-07-28T01:37:39.894Z,10.60
2022-07-28T01:40:11.837Z,10.58
2022-07-28T01:42:46.865Z,10.58
2022-07-28T01:45:16.550Z,10.57
2022-07-28T01:47:47.582Z,10.55
2022-07-28T01:50:20.432Z,10.56
2022-07-28T01:52:51.338Z,10.55
2022-07-28T01:55:23.924Z,10.55
2022-07-28T01:57:57.213Z,10.53
2022-07-28T02:00:27.867Z,10.52
2022-07-28T02:02:58.247Z,10.52
2022-07-28T02:05:29.735Z,10.53
2022-07-28T02:08:01.541Z,10.53
2022-07-28T02:10:31.959Z,10.53
2022-07-28T02:13:02.396Z,10.53
2022-07-28T02:15:32.618Z,10.54
2022-07-28T02:18:02.648Z,10.54
2022-07-28T02:20:32.610Z,10.54
2022-07-28T02:23:01.354Z,10.54
2022-07-28T02:25:31.021Z,10.51
2022-07-28T02:28:06.684Z,10.45
2022-07-28T02:31:01.903Z,10.36
2022-07-28T02:34:00.409Z,10.25
2022-07-28T02:36:35.380Z,10.15
2022-07-28T02:39:16.016Z,10.09
2022-07-28T02:41:44.782Z,10.05
2022-07-28T02:44:18.512Z,10.03
2022-07-28T02:46:52.969Z,10.00
2022-07-28T02:49:42.193Z,9.97
2022-07-28T02:52:13.989Z,9.94
2022-07-28T02:54:44.051Z,9.92
2022-07-28T02:57:14.100Z,9.90
2022-07-28T02:59:44.152Z,9.90
2022-07-28T03:02:13.414Z,9.89
2022-07-28T03:04:58.832Z,9.86
2022-07-28T03:07:29.916Z,9.84
2022-07-28T03:10:00.012Z,9.77
2022-07-28T03:12:28.543Z,9.70
2022-07-28T03:14:57.036Z,9.66
2022-07-28T03:17:25.507Z,9.64
2022-07-28T03:19:54.010Z,9.63
2022-07-28T03:22:22.496Z,9.62
2022-07-28T03:24:54.913Z,9.63
2022-07-28T03:27:31.659Z,9.63
2022-07-28T03:30:08.806Z,9.61
2022-07-28T03:32:43.196Z,9.59
2022-07-28T03:35:13.184Z,9.57
2022-07-28T03:37:53.678Z,9.57
2022-07-28T03:40:27.056Z,9.59
2022-07-28T03:42:58.099Z,9.62
2022-07-28T03:45:27.181Z,9.65
2022-07-28T03:47:58.746Z,9.69
2022-07-28T03:50:31.328Z,9.71
2022-07-28T03:53:03.221Z,9.75
2022-07-28T03:55:31.771Z,9.78
2022-07-28T03:58:01.047Z,9.84
2022-07-28T04:00:29.628Z,9.91
2022-07-28T04:02:58.369Z,9.95
2022-07-28T04:05:26.901Z,10.00
2022-07-28T04:07:55.413Z,10.05
2022-07-28T04:10:24.105Z,10.09
2022-07-28T04:12:58.071Z,10.13
2022-07-28T04:15:28.699Z,10.19
2022-07-28T04:17:57.333Z,10.24
2022-07-28T04:20:28.196Z,10.30
2022-07-28T04:22:57.030Z,10.36
2022-07-28T04:25:28.019Z,10.43
2022-07-28T04:27:56.561Z,10.51
2022-07-28T04:30:25.638Z,10.59
2022-07-28T04:32:56.223Z,10.67
2022-07-28T04:35:26.204Z,10.75
2022-07-28T04:37:58.492Z,10.85
2022-07-28T04:40:28.268Z,10.94
2022-07-28T04:42:56.827Z,11.03
2022-07-28T04:45:25.630Z,11.12
2022-07-28T04:47:54.290Z,11.22
2022-07-28T04:50:22.904Z,11.32
2022-07-28T04:52:51.575Z,11.41
2022-07-28T04:55:20.257Z,11.51
2022-07-28T04:57:48.778Z,11.61
2022-07-28T05:00:17.574Z,11.71
2022-07-28T05:02:46.605Z,11.82
2022-07-28T05:05:15.356Z,11.91
2022-07-28T05:07:44.365Z,12.03
2022-07-28T05:10:13.201Z,12.13
2022-07-28T05:12:41.835Z,12.23
2022-07-28T05:15:10.554Z,12.33
2022-07-28T05:17:39.760Z,12.44
2022-07-28T05:20:09.014Z,12.54
2022-07-28T05:22:46.496Z,12.66
2022-07-28T05:25:20.881Z,12.78
2022-07-28T05:27:51.184Z,12.90
2022-07-28T05:30:20.918Z,13.01
2022-07-28T05:32:49.578Z,13.13
2022-07-28T05:35:18.153Z,13.26
2022-07-28T05:37:46.736Z,13.38
2022-07-28T05:40:16.058Z,13.50
2022-07-28T05:42:47.693Z,13.62
2022-07-28T05:45:17.633Z,13.74
2022-07-28T05:47:50.098Z,13.85
2022-07-28T05:50:22.081Z,13.96
2022-07-28T05:52:51.477Z,14.09
2022-07-28T05:55:20.192Z,14.20
2022-07-28T05:57:48.993Z,14.32
2022-07-28T06:00:22.271Z,14.43
2022-07-28T06:02:51.256Z,14.55
2022-07-28T06:05:22.922Z,14.66
2022-07-28T06:07:51.768Z,14.77
2022-07-28T06:10:24.070Z,14.88
2022-07-28T06:12:57.921Z,14.99
2022-07-28T06:15:28.316Z,15.10
2022-07-28T06:17:56.810Z,15.22
2022-07-28T06:20:27.877Z,15.34
2022-07-28T06:22:57.340Z,15.45
2022-07-28T06:25:29.990Z,15.55
2022-07-28T06:28:03.082Z,15.65
2022-07-28T06:30:32.607Z,15.76
2022-07-28T06:33:01.695Z,15.86
2022-07-28T06:35:30.298Z,15.95
2022-07-28T06:38:11.852Z,16.06
2022-07-28T06:40:40.528Z,16.16
2022-07-28T06:43:09.263Z,16.27
2022-07-28T06:45:37.864Z,16.37
2022-07-28T06:48:08.210Z,16.47
2022-07-28T06:50:39.446Z,16.57
2022-07-28T06:53:08.096Z,16.67
2022-07-28T06:55:37.984Z,16.78
2022-07-28T06:58:06.592Z,16.87
2022-07-28T07:00:35.267Z,16.97
2022-07-28T07:03:03.942Z,17.06
2022-07-28T07:05:32.922Z,17.14
2022-07-28T07:08:01.591Z,17.22
2022-07-28T07:10:30.118Z,17.30
2022-07-28T07:12:58.784Z,17.41
2022-07-28T07:15:27.613Z,17.54
2022-07-28T07:17:56.278Z,17.63
2022-07-28T07:20:24.830Z,17.71
2022-07-28T07:22:53.440Z,17.80
2022-07-28T07:25:22.137Z,17.91
2022-07-28T07:27:50.720Z,18.02
2022-07-28T07:30:19.237Z,18.12
2022-07-28T07:32:48.066Z,18.23
2022-07-28T07:35:16.820Z,18.37
2022-07-28T07:37:45.366Z,18.52
2022-07-28T07:40:14.027Z,18.67
2022-07-28T07:42:42.561Z,18.80
2022-07-28T07:45:11.392Z,18.94
2022-07-28T07:47:41.040Z,19.07
2022-07-28T07:50:09.822Z,19.16
2022-07-28T07:52:38.537Z,19.28
2022-07-28T07:55:08.000Z,19.42
2022-07-28T07:57:36.495Z,19.58
2022-07-28T08:00:05.995Z,19.70
2022-07-28T08:02:34.608Z,19.83
2022-07-28T08:05:03.309Z,19.95
2022-07-28T08:07:31.901Z,20.03
2022-07-28T08:10:00.881Z,20.10
2022-07-28T08:12:29.870Z,20.19
2022-07-28T08:14:58.563Z,20.31
2022-07-28T08:17:27.144Z,20.45
2022-07-28T08:19:56.434Z,20.59
2022-07-28T08:22:25.122Z,20.72
2022-07-28T08:24:53.857Z,20.79
2022-07-28T08:27:22.475Z,20.86
2022-07-28T08:29:50.964Z,20.96
2022-07-28T08:32:19.538Z,21.06
2022-07-28T08:34:48.024Z,21.18
2022-07-28T08:37:16.594Z,21.31
2022-07-28T08:39:45.485Z,21.40
2022-07-28T08:42:53.315Z,21.52
2022-07-28T08:45:22.527Z,21.69
2022-07-28T08:48:07.772Z,21.84
2022-07-28T08:50:39.568Z,22.00
2022-07-28T08:53:08.877Z,22.15
2022-07-28T08:55:38.108Z,22.27
2022-07-28T08:58:07.486Z,22.41
2022-07-28T09:00:36.068Z,22.57
2022-07-28T09:03:05.902Z,22.72
2022-07-28T09:05:35.982Z,22.93
2022-07-28T09:08:05.787Z,23.14
2022-07-28T09:10:34.382Z,23.34
2022-07-28T09:13:02.940Z,23.57
2022-07-28T09:15:32.945Z,23.81
2022-07-28T09:18:02.368Z,24.06
2022-07-28T09:20:31.061Z,24.32
2022-07-28T09:23:02.502Z,24.57
2022-07-28T09:25:31.762Z,24.79
2022-07-28T09:28:26.724Z,24.94
2022-07-28T09:30:55.334Z,25.14
2022-07-28T09:33:43.141Z,25.30
2022-07-28T09:36:16.682Z,25.44
2022-07-28T09:38:47.472Z,25.56
2022-07-28T09:41:19.067Z,25.70
2022-07-28T09:43:54.841Z,25.80
2022-07-28T09:46:27.418Z,25.87
2022-07-28T09:49:02.471Z,25.97
2022-07-28T09:51:35.987Z,26.11
2022-07-28T09:54:19.739Z,26.25
2022-07-28T09:56:48.546Z,26.48
2022-07-28T09:59:19.183Z,26.73
2022-07-28T10:02:01.809Z,26.97
2022-07-28T10:04:38.300Z,27.24
2022-07-28T10:07:11.490Z,27.54
2022-07-28T10:09:41.352Z,27.83
2022-07-28T10:12:25.436Z,28.06
2022-07-28T10:15:00.364Z,28.17
2022-07-28T10:17:34.550Z,28.27
2022-07-28T10:20:07.291Z,28.41
2022-07-28T10:22:43.090Z,28.54
2022-07-28T10:25:13.090Z,28.74
2022-07-28T10:27:43.439Z,28.77
2022-07-28T10:30:13.543Z,28.77
2022-07-28T10:32:46.425Z,28.88
2022-07-28T10:35:18.229Z,29.13
2022-07-28T10:38:16.918Z,29.34
2022-07-28T10:40:49.692Z,29.63
2022-07-28T10:43:19.474Z,29.91
2022-07-28T10:46:06.900Z,30.15
2022-07-28T10:48:40.439Z,30.38
2022-07-28T10:51:12.476Z,30.58
2022-07-28T10:53:54.477Z,30.87
2022-07-28T10:56:34.310Z,31.24
2022-07-28T10:59:12.159Z,31.55
2022-07-28T11:01:50.452Z,31.80
2022-07-28T11:04:41.149Z,31.50
2022-07-28T11:07:12.435Z,31.09
2022-07-28T11:09:41.411Z,30.99
2022-07-28T11:12:15.408Z,31.03
2022-07-28T11:14:45.093Z,31.12
2022-07-28T11:17:24.081Z,31.10
2022-07-28T11:20:24.906Z,31.03
2022-07-28T11:22:44.704Z,30.85
2022-07-28T11:25:20.488Z,30.71
2022-07-28T11:27:51.894Z,30.59
2022-07-28T11:30:33.118Z,30.44
2022-07-28T11:33:07.260Z,30.26
2022-07-28T11:35:41.791Z,30.14
2022-07-28T11:38:14.778Z,30.00
2022-07-28T11:40:46.722Z,29.89
2022-07-28T11:43:22.556Z,29.85
2022-07-28T11:46:14.561Z,29.90
2022-07-28T11:48:45.470Z,30.11
2022-07-28T11:51:14.661Z,30.45
2022-07-28T11:53:48.453Z,30.76
2022-07-28T11:56:29.394Z,31.13
2022-07-28T11:59:06.194Z,31.45
2022-07-28T12:01:37.064Z,31.87
2022-07-28T12:04:16.185Z,32.44
2022-07-28T12:06:49.459Z,33.12
2022-07-28T12:09:26.277Z,33.80
2022-07-28T12:11:56.873Z,34.17
2022-07-28T12:14:30.168Z,34.50
2022-07-28T12:16:58.720Z,34.96
2022-07-28T12:19:32.908Z,34.87
2022-07-28T12:22:01.802Z,34.17
2022-07-28T12:24:45.777Z,33.86
2022-07-28T12:27:16.605Z,33.76
2022-07-28T12:30:02.150Z,33.64
2022-07-28T12:32:35.159Z,33.66
2022-07-28T12:35:05.591Z,33.82
2022-07-28T12:37:34.275Z,33.71
2022-07-28T12:40:02.930Z,33.26
2022-07-28T12:42:32.562Z,33.22
2022-07-28T12:45:04.899Z,33.22
2022-07-28T12:47:34.932Z,33.20
2022-07-28T12:50:19.179Z,33.45
2022-07-28T12:53:05.758Z,34.02
2022-07-28T12:55:34.729Z,34.69
2022-07-28T12:58:04.710Z,34.96
2022-07-28T13:00:36.537Z,35.41
2022-07-28T13:03:52.010Z,35.80
2022-07-28T13:06:22.426Z,36.35
2022-07-28T13:08:54.537Z,36.87
2022-07-28T13:11:47.958Z,37.08
2022-07-28T13:14:16.994Z,36.37
2022-07-28T13:16:58.116Z,36.19
2022-07-28T13:19:26.652Z,36.19
2022-07-28T13:22:01.614Z,35.99
2022-07-28T13:24:31.867Z,35.36
2022-07-28T13:27:02.587Z,35.17
2022-07-28T13:29:35.689Z,35.62
2022-07-28T13:32:04.639Z,36.08
2022-07-28T13:34:33.489Z,36.10
2022-07-28T13:37:02.055Z,35.89
2022-07-28T13:39:30.712Z,35.62
2022-07-28T13:41:59.601Z,35.29
2022-07-28T13:44:37.135Z,35.10
2022-07-28T13:47:06.467Z,34.78
2022-07-28T13:49:37.521Z,33.98
2022-07-28T13:52:12.861Z,33.99
2022-07-28T13:54:41.588Z,34.42
2022-07-28T13:57:12.301Z,34.68
2022-07-28T13:59:44.100Z,34.89
2022-07-28T14:02:15.752Z,35.04
2022-07-28T14:04:48.903Z,35.51
2022-07-28T14:07:19.713Z,36.35
2022-07-28T14:09:50.911Z,37.18
2022-07-28T14:12:19.517Z,38.22
2022-07-28T14:14:48.925Z,39.28
2022-07-28T14:17:43.755Z,40.01
2022-07-28T14:20:13.588Z,40.77
2022-07-28T14:22:44.216Z,41.35
2022-07-28T14:25:19.777Z,41.22
2022-07-28T14:27:51.669Z,40.51
2022-07-28T14:30:22.981Z,40.12
2022-07-28T14:32:52.733Z,40.08
2022-07-28T14:35:21.897Z,40.00
2022-07-28T14:40:40.367Z,40.35
2022-07-28T14:43:09.593Z,41.14
2022-07-28T14:46:01.619Z,42.11
2022-07-28T14:48:27.350Z,43.36
2022-07-28T14:50:57.213Z,44.42
2022-07-28T14:53:27.749Z,45.33
2022-07-28T14:55:57.231Z,46.18
2022-07-28T15:13:57.821Z,43.65
2022-07-28T15:16:26.598Z,43.04
2022-07-28T15:18:55.604Z,42.17
2022-07-28T15:21:24.236Z,41.96
2022-07-28T15:23:53.597Z,42.79
2022-07-28T15:26:22.165Z,43.90
2022-07-28T15:28:50.776Z,45.01
2022-07-28T15:31:20.749Z,46.03
2022-07-28T15:33:54.905Z,46.91
2022-07-28T15:36:27.074Z,46.93
2022-07-28T15:38:55.942Z,46.13
2022-07-28T15:41:24.550Z,45.32
2022-07-28T15:43:53.129Z,43.12
2022-07-28T15:46:21.740Z,42.31
2022-07-28T15:48:50.564Z,42.18
2022-07-28T15:51:22.619Z,42.25
2022-07-28T15:53:56.478Z,42.45
2022-07-28T16:14:18.898Z,47.19
2022-07-28T16:16:48.169Z,49.17
2022-07-28T16:19:38.697Z,49.88
2022-07-28T16:22:05.768Z,50.81
2022-07-28T16:24:35.950Z,51.58
2022-07-28T16:27:04.763Z,52.26
2022-07-28T16:29:33.302Z,51.58
2022-07-28T16:32:01.876Z,49.10
2022-07-28T16:34:30.496Z,47.71
2022-07-28T16:36:59.731Z,46.70
2022-07-28T16:39:28.297Z,45.91
2022-07-28T16:41:57.473Z,45.17
2022-07-28T16:44:26.235Z,44.68
2022-07-28T16:46:54.766Z,44.26
2022-07-28T16:49:24.085Z,43.97
2022-07-28T16:51:52.987Z,43.66
2022-07-28T16:54:21.717Z,43.20
2022-07-28T16:56:50.508Z,42.81
2022-07-28T16:59:19.017Z,43.33
2022-07-28T17:01:47.643Z,44.21
2022-07-28T17:04:16.907Z,45.01
2022-07-28T17:06:47.767Z,45.86
2022-07-28T17:09:17.544Z,46.54
2022-07-28T17:11:46.216Z,47.35
2022-07-28T17:14:17.040Z,47.99
2022-07-28T17:16:46.316Z,48.53
2022-07-28T17:19:14.825Z,49.02
2022-07-28T17:21:43.403Z,49.21
2022-07-28T17:24:13.443Z,47.54
2022-07-28T17:29:30.833Z,43.95
2022-07-28T17:31:59.397Z,42.96
2022-07-28T17:34:27.986Z,42.16
2022-07-28T17:36:57.855Z,41.52
2022-07-28T17:39:26.361Z,40.88
2022-07-28T17:41:55.861Z,40.24
2022-07-28T17:44:30.615Z,39.75
2022-07-28T17:47:03.604Z,40.23
2022-07-28T17:49:32.330Z,40.79
2022-07-28T17:52:01.671Z,41.20
2022-07-28T17:54:50.777Z,41.50
2022-07-28T17:57:20.447Z,41.59
2022-07-28T17:59:51.251Z,41.46
2022-07-28T18:02:20.826Z,41.03
2022-07-28T18:04:50.295Z,40.35
2022-07-28T18:07:18.907Z,39.59
2022-07-28T18:09:47.575Z,39.00
2022-07-28T18:12:17.359Z,38.44
2022-07-28T18:14:48.704Z,37.73
2022-07-28T18:17:27.107Z,36.86
2022-07-28T18:19:57.569Z,35.89
2022-07-28T18:22:26.266Z,35.04
2022-07-28T18:24:54.792Z,34.27
2022-07-28T18:27:23.305Z,33.53
2022-07-28T18:29:52.201Z,32.79
2022-07-28T18:32:20.806Z,32.11
2022-07-28T18:34:49.322Z,31.47
2022-07-28T18:37:17.991Z,30.87
2022-07-28T18:39:46.686Z,30.30
2022-07-28T18:42:16.516Z,29.74
2022-07-28T18:44:45.081Z,29.21
2022-07-28T18:47:13.747Z,28.73
2022-07-28T18:49:42.333Z,28.27
2022-07-28T18:52:10.941Z,27.83
2022-07-28T18:54:39.631Z,27.41
2022-07-28T18:57:08.159Z,27.03
2022-07-28T18:59:41.597Z,26.67
2022-07-28T19:02:14.869Z,26.28
2022-07-28T19:04:47.243Z,25.90
2022-07-28T19:07:16.415Z,25.56
2022-07-28T19:09:45.002Z,25.24
2022-07-28T19:12:13.731Z,24.94
2022-07-28T19:14:42.252Z,24.66
2022-07-28T19:17:11.532Z,24.40
2022-07-28T19:19:40.117Z,24.14
2022-07-28T19:22:09.847Z,23.89
2022-07-28T19:24:38.654Z,23.63
2022-07-28T19:27:07.323Z,23.41
2022-07-28T19:29:36.146Z,23.21
2022-07-28T19:32:06.027Z,23.01
2022-07-28T19:34:36.107Z,22.82
2022-07-28T19:37:04.679Z,22.64
2022-07-28T19:39:34.696Z,22.45
2022-07-28T19:42:09.036Z,22.27
2022-07-28T19:44:38.450Z,22.07
2022-07-28T19:47:07.326Z,21.90
2022-07-28T19:49:36.055Z,21.77
2022-07-28T19:52:05.312Z,21.65
2022-07-28T19:54:33.891Z,21.53
2022-07-28T19:57:02.489Z,21.42
2022-07-28T19:59:41.104Z,21.29
2022-07-28T20:02:09.796Z,21.17
2022-07-28T20:04:38.914Z,21.06
2022-07-28T20:07:08.073Z,20.94
2022-07-28T20:09:36.911Z,20.83
2022-07-28T20:12:07.827Z,20.71
2022-07-28T20:14:37.936Z,20.61
2022-07-28T20:17:07.382Z,20.49
2022-07-28T20:19:35.985Z,20.38
2022-07-28T20:22:04.541Z,20.28
2022-07-28T20:24:33.070Z,20.18
2022-07-28T20:27:03.815Z,20.07
2022-07-28T20:29:32.397Z,19.98
2022-07-28T20:32:01.054Z,19.88
2022-07-28T20:34:29.871Z,19.78
2022-07-28T20:36:58.459Z,19.69
2022-07-28T20:39:44.286Z,19.60
2022-07-28T20:42:13.416Z,19.49
2022-07-28T20:44:42.234Z,19.40
2022-07-28T20:47:10.706Z,19.32
2022-07-28T20:49:39.484Z,19.25
2022-07-28T20:52:08.092Z,19.16
2022-07-28T20:54:36.779Z,19.09
2022-07-28T20:57:05.453Z,19.01
2022-07-28T20:59:33.966Z,18.94
2022-07-28T21:03:28.332Z,18.86
2022-07-28T21:05:56.890Z,18.77
2022-07-28T21:08:25.514Z,18.71
2022-07-28T21:10:56.055Z,18.64
2022-07-28T21:14:01.820Z,18.57
2022-07-28T21:16:31.068Z,18.48
2022-07-28T21:18:59.742Z,18.41
2022-07-28T21:21:29.087Z,18.35
2022-07-28T21:23:57.655Z,18.30
2022-07-28T21:26:26.321Z,18.23
2022-07-28T21:32:02.137Z,18.11
2022-07-28T21:34:35.475Z,18.03
2022-07-28T21:37:06.758Z,17.98
2022-07-28T21:39:36.685Z,17.92
2022-07-28T21:42:08.084Z,17.87
2022-07-28T21:44:37.894Z,17.82
2022-07-28T21:47:06.642Z,17.76
2022-07-28T21:49:35.282Z,17.72
2022-07-28T21:52:04.180Z,17.66
2022-07-28T21:54:32.703Z,17.60
2022-07-28T21:57:01.213Z,17.55
2022-07-28T21:59:34.754Z,17.50
2022-07-28T22:02:03.409Z,17.46
2022-07-28T22:04:32.114Z,17.42
2022-07-28T22:07:00.692Z,17.38
2022-07-28T22:09:31.834Z,17.34
2022-07-28T22:12:02.272Z,17.29
2022-07-28T22:14:32.501Z,17.26
2022-07-28T22:17:01.952Z,17.21
2022-07-28T22:19:31.832Z,17.18
2022-07-28T22:22:00.405Z,17.14
2022-07-28T22:24:28.985Z,17.10
2022-07-28T22:26:57.837Z,17.06
2022-07-28T22:29:26.688Z,17.03
2022-07-28T22:31:59.857Z,17.00
2022-07-28T22:34:28.540Z,16.96
2022-07-28T22:36:57.146Z,16.93
2022-07-28T22:39:25.681Z,16.90
2022-07-28T22:41:54.354Z,16.86
2022-07-28T22:44:22.883Z,16.82
2022-07-28T22:46:51.888Z,16.79
2022-07-28T22:49:20.900Z,16.74
2022-07-28T22:51:50.470Z,16.71
2022-07-28T22:54:19.058Z,16.67
2022-07-28T22:56:47.957Z,16.63
2022-07-28T22:59:17.834Z,16.61
2022-07-28T23:01:46.622Z,16.57
2022-07-28T23:04:15.589Z,16.54
2022-07-28T23:06:44.342Z,16.50
2022-07-28T23:09:13.391Z,16.47
2022-07-28T23:11:41.948Z,16.43
2022-07-28T23:14:24.187Z,16.38
2022-07-28T23:16:52.906Z,16.34
2022-07-28T23:19:21.448Z,16.29
2022-07-28T23:21:50.451Z,16.25
2022-07-28T23:24:19.257Z,16.20
2022-07-28T23:26:48.373Z,16.15
2022-07-28T23:29:16.959Z,16.12
2022-07-28T23:31:45.533Z,16.08
2022-07-28T23:34:14.352Z,16.03
2022-07-28T23:36:43.121Z,15.97
2022-07-28T23:39:11.669Z,15.93
2022-07-28T23:41:40.453Z,15.88
2022-07-28T23:44:09.034Z,15.84
2022-07-28T23:46:37.743Z,15.79
2022-07-28T23:49:06.935Z,15.75
2022-07-28T23:51:47.209Z,15.71
2022-07-28T23:54:17.662Z,15.66
2022-07-28T23:56:46.533Z,15.62
2022-07-28T23:59:15.056Z,15.58
